EDT,Max TemperatureF,Mean TemperatureF,Min TemperatureF,Max Dew PointF,MeanDew PointF,Min DewpointF,Max Humidity, Mean Humidity, Min Humidity, Max Sea Level PressureIn, Mean Sea Level PressureIn, Min Sea Level PressureIn, Max VisibilityMiles, Mean VisibilityMiles, Min VisibilityMiles, Max Wind SpeedMPH, Mean Wind SpeedMPH, Max Gust SpeedMPH,PrecipitationIn, CloudCover, Events, WindDirDegrees
2012-10-1,69,62,54,58,52,48,90,70,49,29.98,29.95,29.90,10,9,4,9,4,,0.07,2,,204
2012-10-2,73,70,68,70,66,57,90,85,68,29.96,29.92,29.89,10,5,0,13,6,,0.21,8,Fog-Rain,34
2012-10-3,84,78,73,73,71,65,94,84,54,30.12,30.04,29.95,10,6,0,8,2,,0.00,4,Fog,249
2012-10-4,81,75,69,72,69,57,94,82,56,30.15,30.11,30.08,10,6,1,8,2,,0.01,2,Rain,265
2012-10-5,82,73,64,62,57,54,70,58,38,30.14,30.09,30.01,10,9,0,10,5,,0.00,0,,296
2012-10-6,80,73,64,61,56,48,78,58,48,29.99,29.89,29.83,10,10,9,15,8,23,0.00,3,,274
2012-10-7,82,54,50,49,47,43,93,77,58,30.17,30.10,30.04,10,8,2,8,5,,0.15,7,Rain,324
2012-10-8,57,52,48,48,44,40,86,72,55,30.30,30.24,30.17,10,10,8,12,8,,0.00,4,,2
2012-10-9,61,56,52,56,52,46,90,83,72,30.20,30.15,30.06,10,8,4,13,9,,0.11,8,Rain,351
2012-10-10,71,64,57,57,53,42,93,75,42,30.09,29.99,29.88,10,6,2,18,5,28,0.01,6,Rain,300
2012-10-11,63,56,51,43,38,33,74,54,34,30.30,30.21,30.11,10,10,10,12,7,,0.00,0,,283
2012-10-12,66,56,46,45,41,32,83,57,41,30.45,30.24,30.15,10,10,10,17,4,29,0.00,0,,329
2012-10-13,57,52,46,43,32,24,62,48,28,30.54,30.45,30.32,10,10,10,12,6,18,0.00,0,,116
2012-10-14,73,63,53,59,51,46,80,65,41,30.29,30.14,29.95,10,10,10,13,9,22,0.00,2,,175
2012-10-15,70,66,59,64,59,50,90,79,63,29.94,29.76,29.67,10,9,1,20,7,26,0.29,5,Rain,199
2012-10-16,64,58,52,49,45,41,86,64,43,29.93,29.88,29.80,10,10,9,15,7,23,0.00,1,,304
2012-10-17,64,56,48,56,50,42,92,75,58,30.03,29.97,29.94,10,8,2,10,5,,0.00,0,,155
2012-10-18,71,64,57,61,56,52,84,74,53,29.98,29.92,29.82,10,10,9,16,10,22,0.00,2,,154
2012-10-19,73,68,61,66,63,58,93,84,73,29.81,29.72,29.61,10,8,1,15,8,24,1.07,6,Rain,166
2012-10-20,69,60,52,56,47,40,89,63,40,29.92,29.79,29.68,10,10,10,8,3,,0.00,2,,304
2012-10-21,66,57,48,44,41,39,74,56,38,30.14,30.05,29.95,10,10,10,12,6,,0.00,0,,288
2012-10-22,72,60,48,50,42,38,75,57,29,30.21,30.15,30.11,10,10,10,9,5,,0.00,0,,302
2012-10-23,70,62,54,60,53,46,84,72,61,30.15,30.10,30.06,10,10,10,9,2,,0.00,0,,142
2012-10-24,72,66,61,62,59,56,87,78,68,30.14,30.10,30.07,10,9,5,9,2,,0.00,3,,124
2012-10-25,71,67,64,60,59,59,87,81,68,30.23,30.19,30.16,7,5,3,9,6,,0.00,5,,99
2012-10-26,71,66,62,60,59,58,90,81,68,30.21,30.14,30.06,10,8,4,12,4,,0.00,5,,64
2012-10-27,68,64,61,59,55,50,84,71,54,30.04,29.94,29.87,10,10,10,12,7,20,0.00,1,,45
2012-10-28,63,60,57,53,50,44,87,70,55,29.84,29.71,29.55,10,9,5,17,13,26,0.22,8,Rain,18
2012-10-29,57,54,48,,,,,,,29.53,29.03,28.51,9,2,1,31,19,50,5.81,8,Rain,317
2012-10-30,48,45,42,42,40,39,93,87,81,29.49,29.24,28.57,10,8,4,20,11,31,0.98,8,Rain,202
2012-10-31,55,49,43,40,38,35,89,68,49,29.66,29.57,29.48,10,10,10,9,3,,0.00,6,,248